Time;durP1;ratioP1;P1;durP2;ratioP2;P2;SDS_P1;SDS_P2;PMS_P1;PMS_P2;Temp;Humidity;BMP_temperature;BMP_pressure;BME280_temperature;BME280_humidity;BME280_pressure;Samples;Min_cycle;Max_cycle;Signal;HPM_P1;HPM_P2
2022/08/05 00:00:57;;;;;;;3.77;2.80;;;28.20;93.70;;;;;;1913022;74;21091;-75
2022/08/05 00:03:51;;;;;;;3.27;2.92;;;28.20;93.80;;;;;;1893538;74;21120;-75
2022/08/05 00:06:42;;;;;;;3.08;2.72;;;28.10;94.00;;;;;;1902775;74;21059;-75
2022/08/05 00:09:33;;;;;;;3.72;2.87;;;28.00;94.30;;;;;;1904729;74;21168;-75
2022/08/05 00:12:24;;;;;;;2.98;2.77;;;28.00;94.50;;;;;;1906040;74;21164;-75
2022/08/05 00:15:16;;;;;;;2.72;2.52;;;28.10;94.50;;;;;;1893253;74;21117;-75
2022/08/05 00:18:09;;;;;;;2.90;2.70;;;28.00;94.70;;;;;;1903756;74;22232;-75
2022/08/05 00:21:02;;;;;;;3.22;2.92;;;27.90;95.00;;;;;;1904663;74;21105;-75
2022/08/05 00:23:59;;;;;;;3.00;2.80;;;27.80;95.40;;;;;;1904911;74;21101;-75
2022/08/05 00:26:51;;;;;;;3.00;2.80;;;27.80;95.60;;;;;;1907698;74;21153;-75
2022/08/05 00:29:43;;;;;;;3.45;2.70;;;27.80;95.90;;;;;;1907366;74;21129;-75
2022/08/05 00:32:34;;;;;;;5.03;2.72;;;27.80;95.90;;;;;;1904189;74;21094;-75
2022/08/05 00:35:26;;;;;;;3.12;2.75;;;27.80;96.10;;;;;;1904315;74;21066;-75
2022/08/05 00:38:18;;;;;;;4.62;2.80;;;27.80;96.30;;;;;;1907115;74;21071;-76
2022/08/05 00:41:11;;;;;;;3.10;2.80;;;27.70;96.50;;;;;;1908229;74;21181;-76
2022/08/05 00:44:04;;;;;;;4.00;2.90;;;27.70;96.80;;;;;;1895105;74;21101;-75
2022/08/05 00:46:55;;;;;;;3.85;3.00;;;27.60;97.10;;;;;;1898896;74;21163;-75
2022/08/05 00:49:48;;;;;;;3.08;2.72;;;27.70;97.40;;;;;;1904454;74;21070;-75
2022/08/05 00:52:40;;;;;;;2.92;2.72;;;27.60;97.60;;;;;;1909112;74;21074;-75
2022/08/05 00:55:33;;;;;;;3.12;2.92;;;27.60;97.90;;;;;;1906192;74;21109;-75
2022/08/05 00:58:26;;;;;;;3.25;2.58;;;27.60;98.30;;;;;;1904261;74;21639;-75
2022/08/05 01:01:17;;;;;;;3.22;2.92;;;27.60;98.50;;;;;;1898582;74;21151;-75
2022/08/05 01:04:11;;;;;;;2.90;2.70;;;27.50;98.80;;;;;;1884821;75;21190;-75
2022/08/05 01:07:04;;;;;;;3.62;2.90;;;27.40;99.30;;;;;;1898812;75;21039;-75
2022/08/05 01:09:56;;;;;;;3.15;2.95;;;27.40;99.70;;;;;;1894717;75;21565;-75
2022/08/05 01:12:50;;;;;;;3.67;3.37;;;27.40;99.90;;;;;;1894698;75;21058;-75
2022/08/05 01:15:48;;;;;;;3.40;3.10;;;27.30;99.90;;;;;;1883023;75;21153;-75
2022/08/05 01:18:43;;;;;;;3.08;2.77;;;27.20;99.90;;;;;;1886590;75;21100;-75
2022/08/05 01:22:06;;;;;;;3.40;3.02;;;27.10;99.90;;;;;;1898078;75;21062;-75
2022/08/05 01:25:20;;;;;;;3.50;3.20;;;27.10;99.90;;;;;;1888163;75;21064;-75
2022/08/05 01:28:26;;;;;;;4.70;2.87;;;27.10;99.90;;;;;;1899188;75;21051;-75
2022/08/05 01:31:22;;;;;;;3.27;2.97;;;27.20;99.90;;;;;;1872657;77;21495;-75
2022/08/05 01:34:17;;;;;;;3.08;2.77;;;27.10;99.90;;;;;;1880983;75;21047;-75
2022/08/05 01:37:13;;;;;;;2.70;2.50;;;27.10;99.90;;;;;;1890317;75;21183;-75
2022/08/05 01:40:09;;;;;;;4.17;3.10;;;27.10;99.90;;;;;;1906205;75;21090;-75
2022/08/05 01:43:02;;;;;;;3.15;2.87;;;27.20;99.90;;;;;;1899680;75;21609;-75
2022/08/05 01:45:55;;;;;;;3.75;2.70;;;27.20;99.90;;;;;;1885530;75;21107;-75
2022/08/05 01:48:48;;;;;;;2.85;2.60;;;27.10;99.90;;;;;;1882933;75;21052;-75
2022/08/05 01:51:41;;;;;;;3.50;3.20;;;27.10;99.90;;;;;;1883186;75;21064;-75
2022/08/05 01:54:37;;;;;;;3.40;3.10;;;27.10;99.90;;;;;;1895378;75;21112;-75
2022/08/05 01:57:32;;;;;;;3.42;3.12;;;27.10;99.90;;;;;;1901696;75;21162;-75
2022/08/05 02:00:25;;;;;;;3.50;3.20;;;27.00;99.90;;;;;;1885674;75;21083;-75
2022/08/05 02:03:22;;;;;;;6.65;5.70;;;27.00;99.90;;;;;;1895046;75;21083;-75
2022/08/05 02:06:15;;;;;;;4.78;4.37;;;27.00;99.90;;;;;;1895253;75;21170;-75
2022/08/05 02:09:08;;;;;;;5.17;4.30;;;26.90;99.90;;;;;;1895267;75;21068;-75
2022/08/05 02:12:05;;;;;;;4.90;4.10;;;26.80;99.90;;;;;;1901186;75;21067;-75
2022/08/05 02:15:01;;;;;;;4.28;3.30;;;26.80;99.90;;;;;;1897235;75;21207;-75
2022/08/05 02:17:55;;;;;;;4.60;4.20;;;26.80;99.90;;;;;;1894818;75;21044;-75
2022/08/05 02:20:53;;;;;;;6.45;3.92;;;26.80;99.90;;;;;;1895046;75;21107;-75
2022/08/05 02:23:49;;;;;;;5.15;4.05;;;26.80;99.90;;;;;;1895090;75;21106;-75
2022/08/05 02:26:43;;;;;;;4.15;3.83;;;26.80;99.90;;;;;;1899360;75;21179;-75
2022/08/05 02:29:37;;;;;;;4.92;3.55;;;26.70;99.90;;;;;;1897963;75;21204;-75
2022/08/05 02:32:31;;;;;;;3.80;3.50;;;26.60;99.90;;;;;;1907753;75;21121;-75
2022/08/05 02:35:27;;;;;;;3.72;3.40;;;26.70;99.90;;;;;;1888735;75;21391;-75
2022/08/05 02:38:21;;;;;;;4.90;3.15;;;26.60;99.90;;;;;;1916476;75;21064;-75
2022/08/05 02:41:15;;;;;;;7.42;4.12;;;26.60;99.90;;;;;;1884395;76;21074;-75
2022/08/05 02:44:10;;;;;;;6.60;4.50;;;26.60;99.90;;;;;;1897263;75;21197;-75
2022/08/05 02:47:04;;;;;;;5.80;4.17;;;26.40;99.90;;;;;;1893372;75;21059;-75
2022/08/05 02:49:56;;;;;;;3.62;3.35;;;26.40;99.90;;;;;;1894922;75;21062;-75
2022/08/05 02:52:48;;;;;;;3.50;3.05;;;26.30;99.90;;;;;;1897113;75;21587;-75
2022/08/05 02:55:40;;;;;;;3.50;3.20;;;26.40;99.90;;;;;;1898645;75;21048;-75
2022/08/05 02:58:34;;;;;;;3.45;3.15;;;26.40;99.90;;;;;;1907676;75;21103;-75
2022/08/05 03:01:31;;;;;;;2.87;2.67;;;26.50;99.90;;;;;;1906411;75;21164;-75
2022/08/05 03:04:22;;;;;;;3.92;3.00;;;26.60;99.90;;;;;;1896119;75;21071;-75
2022/08/05 03:07:14;;;;;;;3.25;2.98;;;26.50;99.90;;;;;;1888147;75;21084;-75
2022/08/05 03:10:10;;;;;;;3.20;2.90;;;26.50;99.90;;;;;;1883951;75;21176;-75
2022/08/05 03:13:05;;;;;;;3.00;2.80;;;26.40;99.90;;;;;;1875525;75;21101;-75
2022/08/05 03:15:54;;;;;;;4.60;3.20;;;26.40;99.90;;;;;;1906384;75;21088;-75
2022/08/05 03:18:47;;;;;;;3.10;2.90;;;26.40;99.90;;;;;;1903118;75;21126;-75
2022/08/05 03:21:38;;;;;;;3.20;3.00;;;26.40;99.90;;;;;;1897482;75;21224;-75
2022/08/05 03:24:39;;;;;;;3.67;3.27;;;26.40;99.90;;;;;;1882765;75;21126;-75
2022/08/05 03:27:31;;;;;;;4.37;3.60;;;26.40;99.90;;;;;;1877761;75;21071;-75
2022/08/05 03:30:25;;;;;;;3.42;3.15;;;26.20;99.90;;;;;;1872100;75;21114;-74
2022/08/05 03:33:18;;;;;;;5.08;3.10;;;26.00;99.90;;;;;;1899485;75;21113;-75
2022/08/05 03:36:11;;;;;;;3.42;3.12;;;25.90;99.90;;;;;;1896769;75;21092;-75
2022/08/05 03:39:08;;;;;;;3.67;3.25;;;25.70;99.90;;;;;;1887145;75;21808;-75
2022/08/05 03:42:01;;;;;;;5.12;3.20;;;25.60;99.90;;;;;;1906302;75;21133;-74
2022/08/05 03:44:52;;;;;;;5.05;3.30;;;25.50;99.90;;;;;;1905104;75;21507;-75
2022/08/05 03:47:43;;;;;;;4.60;2.92;;;25.40;99.90;;;;;;1900026;75;21102;-75
2022/08/05 03:50:38;;;;;;;3.30;3.10;;;25.30;99.90;;;;;;1894573;75;21165;-74
2022/08/05 03:53:33;;;;;;;3.40;3.10;;;25.20;99.90;;;;;;1888872;75;21050;-75
2022/08/05 03:56:29;;;;;;;5.17;3.05;;;25.20;99.90;;;;;;1883701;75;21138;-75
2022/08/05 03:59:25;;;;;;;5.28;3.10;;;25.20;99.90;;;;;;1884098;76;21133;-74
2022/08/05 04:02:20;;;;;;;3.45;3.08;;;25.20;99.90;;;;;;1899305;75;21201;-75
2022/08/05 04:05:15;;;;;;;3.52;3.20;;;25.20;99.90;;;;;;1883052;75;21115;-74
2022/08/05 04:08:10;;;;;;;3.90;2.80;;;25.20;99.90;;;;;;1882351;75;21597;-74
2022/08/05 04:11:04;;;;;;;3.58;3.27;;;25.30;99.90;;;;;;1895114;75;21072;-74
2022/08/05 04:13:55;;;;;;;6.78;3.27;;;25.40;99.90;;;;;;1897717;75;21118;-75
2022/08/05 04:16:49;;;;;;;4.40;2.98;;;25.30;99.90;;;;;;1885930;75;21143;-75
2022/08/05 04:19:46;;;;;;;5.42;2.90;;;25.30;99.90;;;;;;1882655;75;21158;-75
2022/08/05 04:22:50;;;;;;;5.47;2.87;;;25.40;99.90;;;;;;1877388;75;21559;-75
2022/08/05 04:25:42;;;;;;;4.05;2.95;;;25.40;99.90;;;;;;1842138;78;21141;-75
2022/08/05 04:28:34;;;;;;;3.20;2.85;;;25.60;99.90;;;;;;1842901;78;21490;-75
2022/08/05 04:31:27;;;;;;;3.85;3.33;;;25.70;99.90;;;;;;1843808;78;21135;-75
2022/08/05 04:34:19;;;;;;;4.10;3.55;;;25.70;99.90;;;;;;1842508;78;21090;-75
2022/08/05 04:37:13;;;;;;;3.60;3.30;;;25.70;99.90;;;;;;1842623;78;21133;-75
2022/08/05 04:40:09;;;;;;;6.08;3.08;;;25.80;99.90;;;;;;1842653;78;21148;-75
2022/08/05 04:43:01;;;;;;;5.30;3.10;;;25.80;99.90;;;;;;1843516;78;21163;-75
2022/08/05 04:45:52;;;;;;;3.33;3.02;;;25.80;99.90;;;;;;1834222;78;21079;-75
2022/08/05 04:48:45;;;;;;;3.85;3.40;;;25.80;99.90;;;;;;1842874;78;21156;-75
2022/08/05 04:51:38;;;;;;;4.78;3.65;;;25.80;99.90;;;;;;1843008;78;21183;-75
2022/08/05 04:54:31;;;;;;;3.80;3.27;;;25.90;99.90;;;;;;1837223;78;21163;-75
2022/08/05 04:57:22;;;;;;;3.52;3.22;;;25.90;99.90;;;;;;1843922;78;21109;-75
2022/08/05 05:00:17;;;;;;;4.58;3.25;;;25.80;99.90;;;;;;1824693;78;21093;-75
2022/08/05 05:03:10;;;;;;;3.37;3.08;;;25.80;99.90;;;;;;1844828;78;21085;-75
2022/08/05 05:06:03;;;;;;;3.67;3.12;;;25.70;99.90;;;;;;1840829;78;21118;-75
2022/08/05 05:08:55;;;;;;;3.67;3.20;;;25.60;99.90;;;;;;1843346;78;21122;-75
2022/08/05 05:11:47;;;;;;;3.83;3.27;;;25.70;99.90;;;;;;1842787;78;21188;-75
2022/08/05 05:14:40;;;;;;;3.87;3.45;;;25.70;99.90;;;;;;1842556;78;21134;-75
2022/08/05 05:17:39;;;;;;;3.58;2.90;;;25.60;99.90;;;;;;1842505;78;21202;-75
2022/08/05 05:20:33;;;;;;;6.30;3.67;;;25.60;99.90;;;;;;1842771;78;21104;-75
2022/08/05 05:23:28;;;;;;;3.30;3.00;;;25.60;99.90;;;;;;1817863;78;21121;-75
2022/08/05 05:26:21;;;;;;;3.45;3.15;;;25.60;99.90;;;;;;1827027;78;21674;-75
2022/08/05 05:29:14;;;;;;;3.83;3.40;;;25.70;99.90;;;;;;1840857;78;21091;-75
2022/08/05 05:32:06;;;;;;;3.55;3.25;;;25.60;99.90;;;;;;1840773;78;21129;-75
2022/08/05 05:34:59;;;;;;;3.30;3.00;;;25.70;99.90;;;;;;1841178;78;21208;-75
2022/08/05 05:37:53;;;;;;;3.62;3.33;;;25.80;99.90;;;;;;1842052;78;21150;-75
2022/08/05 05:40:46;;;;;;;5.55;3.60;;;25.90;99.90;;;;;;1812370;78;21082;-75
2022/08/05 05:43:49;;;;;;;5.10;3.50;;;25.90;99.90;;;;;;1843190;78;21120;-75
2022/08/05 05:46:42;;;;;;;4.03;3.20;;;25.90;99.90;;;;;;1822458;78;21264;-75
2022/08/05 05:49:33;;;;;;;3.80;3.12;;;25.80;99.90;;;;;;1841625;78;21474;-75
2022/08/05 05:52:25;;;;;;;3.70;3.30;;;25.90;99.90;;;;;;1824961;78;21161;-75
2022/08/05 05:55:19;;;;;;;3.85;3.40;;;25.90;99.90;;;;;;1839311;78;21134;-75
2022/08/05 05:58:11;;;;;;;4.75;3.22;;;25.90;99.90;;;;;;1844191;78;21113;-75
2022/08/05 06:01:04;;;;;;;3.95;3.50;;;25.90;99.90;;;;;;1831144;78;21134;-75
2022/08/05 06:03:56;;;;;;;3.58;3.27;;;25.90;99.90;;;;;;1831930;77;21090;-75
2022/08/05 06:06:49;;;;;;;3.67;3.37;;;26.00;99.90;;;;;;1811730;78;21121;-75
2022/08/05 06:09:41;;;;;;;4.65;3.52;;;26.00;99.90;;;;;;1839783;78;21525;-75
2022/08/05 06:12:36;;;;;;;3.67;3.37;;;25.90;99.90;;;;;;1843394;78;21143;-75
2022/08/05 06:15:28;;;;;;;3.50;3.22;;;26.00;99.90;;;;;;1842935;78;21158;-75
2022/08/05 06:18:21;;;;;;;5.65;3.10;;;26.00;99.90;;;;;;1825057;78;21082;-75
2022/08/05 06:21:14;;;;;;;3.62;3.27;;;26.00;99.90;;;;;;1843419;78;21530;-75
2022/08/05 06:24:09;;;;;;;3.40;3.10;;;26.10;99.90;;;;;;1843337;78;21086;-76
2022/08/05 06:27:02;;;;;;;3.55;2.85;;;26.10;99.90;;;;;;1870759;76;21169;-75
2022/08/05 06:29:54;;;;;;;3.92;3.22;;;26.20;99.90;;;;;;1853424;77;21072;-75
2022/08/05 06:32:46;;;;;;;3.50;3.12;;;26.30;99.90;;;;;;1849133;77;21131;-75
2022/08/05 06:35:39;;;;;;;4.62;3.50;;;26.40;99.90;;;;;;1869971;76;21645;-75
2022/08/05 06:38:32;;;;;;;3.55;3.25;;;26.50;99.90;;;;;;1870220;76;21188;-76
2022/08/05 06:41:24;;;;;;;4.60;3.45;;;26.50;99.90;;;;;;1868437;76;21147;-75
2022/08/05 06:44:16;;;;;;;8.45;3.60;;;26.50;99.90;;;;;;1868074;76;21579;-75
2022/08/05 06:47:07;;;;;;;3.95;3.37;;;26.60;99.90;;;;;;1878435;76;21149;-75
2022/08/05 06:50:00;;;;;;;4.67;3.47;;;26.60;99.90;;;;;;1867810;76;21576;-75
2022/08/05 06:52:53;;;;;;;7.60;3.33;;;26.70;99.90;;;;;;1868133;76;21688;-75
2022/08/05 06:55:45;;;;;;;3.33;3.02;;;26.70;99.90;;;;;;1852303;77;21072;-75
2022/08/05 06:58:38;;;;;;;5.42;3.37;;;26.70;99.90;;;;;;1863109;76;21159;-75
2022/08/05 07:01:36;;;;;;;3.52;3.22;;;26.70;99.90;;;;;;1867053;76;21076;-75
2022/08/05 07:04:30;;;;;;;3.60;3.30;;;26.80;99.90;;;;;;1870256;76;21572;-76
2022/08/05 07:07:23;;;;;;;5.42;3.62;;;26.80;99.90;;;;;;1869534;76;21189;-75
2022/08/05 07:10:16;;;;;;;5.28;3.47;;;26.90;99.90;;;;;;1851609;77;21148;-75
2022/08/05 07:19:31;;;;;;;15.50;4.00;;;26.80;99.90;;;;;;1870080;76;21111;-75
2022/08/05 07:22:24;;;;;;;6.62;3.70;;;26.60;99.90;;;;;;1866018;76;21531;-75
2022/08/05 07:25:17;;;;;;;9.90;3.75;;;26.30;99.90;;;;;;1853959;76;21079;-75
2022/08/05 07:28:10;;;;;;;6.05;3.60;;;26.20;99.90;;;;;;1856621;76;21109;-76
2022/08/05 07:31:03;;;;;;;5.55;3.55;;;26.30;99.90;;;;;;1850106;76;21586;-75
2022/08/05 07:33:54;;;;;;;7.17;3.70;;;26.40;99.90;;;;;;1865005;77;21142;-75
2022/08/05 07:36:47;;;;;;;7.80;3.58;;;26.30;99.90;;;;;;1853028;76;21125;-75
2022/08/05 07:39:40;;;;;;;6.90;4.00;;;26.30;99.90;;;;;;1868765;76;21076;-75
2022/08/05 07:42:33;;;;;;;7.67;3.42;;;26.30;99.90;;;;;;1850381;77;21104;-75
2022/08/05 07:45:25;;;;;;;11.63;3.55;;;26.40;99.90;;;;;;1864906;76;21078;-76
2022/08/05 07:48:18;;;;;;;5.55;3.50;;;26.50;99.90;;;;;;1863804;76;21123;-77
2022/08/05 07:51:10;;;;;;;9.78;3.87;;;26.60;99.90;;;;;;1865225;77;21134;-77
2022/08/05 07:54:03;;;;;;;9.53;3.95;;;26.60;99.90;;;;;;1851337;77;21499;-77
2022/08/05 07:56:55;;;;;;;11.78;3.60;;;26.60;99.90;;;;;;1865576;76;21069;-77
2022/08/05 07:59:48;;;;;;;7.30;3.50;;;26.70;99.90;;;;;;1868566;76;21185;-77
2022/08/05 08:02:40;;;;;;;11.48;4.00;;;26.70;99.90;;;;;;1862129;76;21135;-77
2022/08/05 08:05:34;;;;;;;6.72;3.52;;;26.80;99.90;;;;;;1868763;76;21084;-77
2022/08/05 08:08:27;;;;;;;7.12;3.65;;;26.90;99.90;;;;;;1849918;77;21083;-77
2022/08/05 08:11:28;;;;;;;6.25;3.20;;;27.00;99.90;;;;;;1870059;76;21072;-77
2022/08/05 08:14:21;;;;;;;7.08;3.37;;;27.20;99.90;;;;;;1870181;76;21191;-77
2022/08/05 08:17:13;;;;;;;7.90;3.62;;;27.20;99.90;;;;;;1869872;76;21227;-77
2022/08/05 08:20:08;;;;;;;7.10;4.17;;;27.30;99.90;;;;;;1852846;77;21072;-77
2022/08/05 08:23:02;;;;;;;8.50;3.87;;;27.50;99.90;;;;;;1849420;77;21080;-77
2022/08/05 08:25:53;;;;;;;9.05;4.20;;;27.50;99.90;;;;;;1870215;76;21484;-76
2022/08/05 08:28:46;;;;;;;9.70;3.62;;;27.60;99.90;;;;;;1870346;76;21147;-77
2022/08/05 08:31:39;;;;;;;5.87;3.92;;;27.70;99.90;;;;;;1869514;76;21184;-78
2022/08/05 08:34:31;;;;;;;6.35;3.62;;;27.80;99.90;;;;;;1834036;77;21103;-78
2022/08/05 08:37:24;;;;;;;6.67;3.50;;;27.80;99.90;;;;;;1870148;76;21060;-77
2022/08/05 08:40:25;;;;;;;5.83;3.55;;;27.80;99.90;;;;;;1870146;76;21160;-77
2022/08/05 08:43:23;;;;;;;5.58;3.35;;;27.90;99.90;;;;;;1870326;76;21068;-77
2022/08/05 08:46:17;;;;;;;5.15;3.47;;;28.00;99.90;;;;;;1844875;76;21128;-77
2022/08/05 08:49:12;;;;;;;5.08;3.40;;;28.00;99.90;;;;;;1851195;77;21123;-75
2022/08/05 08:52:10;;;;;;;5.90;3.20;;;28.00;99.90;;;;;;1870065;76;21092;-75
2022/08/05 08:55:03;;;;;;;9.28;3.80;;;27.90;99.90;;;;;;1865604;76;21116;-75
2022/08/05 08:57:56;;;;;;;7.62;3.77;;;27.90;99.90;;;;;;1869910;76;21150;-75
2022/08/05 09:00:50;;;;;;;6.85;3.90;;;28.00;99.90;;;;;;1865165;77;21568;-75
2022/08/05 09:03:43;;;;;;;4.05;3.65;;;28.00;99.90;;;;;;1849485;77;21131;-76
2022/08/05 09:06:40;;;;;;;4.85;3.50;;;28.10;99.90;;;;;;1870101;76;21207;-75
2022/08/05 09:09:33;;;;;;;5.87;3.80;;;28.10;99.90;;;;;;1863976;77;21207;-75
2022/08/05 09:12:25;;;;;;;7.28;3.80;;;28.30;99.90;;;;;;1862589;76;21072;-75
2022/08/05 09:15:18;;;;;;;4.15;3.60;;;28.40;99.90;;;;;;1835324;77;21068;-75
2022/08/05 09:18:30;;;;;;;6.83;3.70;;;28.50;99.90;;;;;;1868283;76;21160;-75
2022/08/05 09:21:22;;;;;;;4.92;3.33;;;28.70;99.90;;;;;;1867750;76;21092;-76
2022/08/05 09:24:30;;;;;;;4.75;3.70;;;28.80;99.90;;;;;;1870970;76;21113;-75
2022/08/05 09:27:34;;;;;;;10.18;3.75;;;28.80;99.90;;;;;;1870359;76;21112;-75
2022/08/05 09:30:27;;;;;;;6.33;3.45;;;29.00;99.90;;;;;;1878959;76;21149;-75
2022/08/05 09:33:21;;;;;;;6.10;3.17;;;29.20;99.90;;;;;;1865785;76;21589;-75
2022/08/05 09:36:15;;;;;;;5.03;3.15;;;29.30;99.90;;;;;;1858724;76;21079;-75
2022/08/05 09:39:14;;;;;;;4.78;3.05;;;29.50;99.90;;;;;;1879354;76;21189;-75
2022/08/05 09:42:09;;;;;;;5.55;3.25;;;29.70;99.90;;;;;;1879140;76;21182;-75
2022/08/05 09:45:12;;;;;;;4.65;3.33;;;29.80;99.90;;;;;;1878583;76;21642;-75
2022/08/05 09:48:24;;;;;;;6.92;3.30;;;29.90;99.90;;;;;;1874465;76;21569;-75
2022/08/05 09:51:16;;;;;;;10.30;3.75;;;30.00;99.90;;;;;;1865223;76;21360;-76
2022/08/05 09:54:08;;;;;;;7.42;4.28;;;30.20;99.90;;;;;;1861326;76;21147;-76
2022/08/05 09:56:59;;;;;;;8.73;4.28;;;30.40;99.90;;;;;;1882387;76;21060;-75
2022/08/05 09:59:54;;;;;;;7.25;3.67;;;30.50;99.90;;;;;;1880589;76;21100;-75
2022/08/05 10:02:54;;;;;;;8.03;3.72;;;30.50;99.90;;;;;;1877967;76;21100;-75
2022/08/05 10:05:47;;;;;;;10.40;3.92;;;30.70;99.90;;;;;;1869415;76;21114;-75
2022/08/05 10:08:40;;;;;;;4.25;3.40;;;30.90;98.80;;;;;;1845230;76;21131;-75
2022/08/05 10:11:33;;;;;;;8.60;3.67;;;31.00;99.60;;;;;;1879180;76;21134;-75
2022/08/05 10:14:27;;;;;;;5.35;4.00;;;31.00;99.40;;;;;;1879157;76;21068;-75
2022/08/05 10:17:26;;;;;;;5.17;4.00;;;31.10;99.50;;;;;;1874934;76;21125;-75
2022/08/05 10:20:19;;;;;;;5.08;3.90;;;31.20;99.60;;;;;;1877074;76;21079;-76
2022/08/05 10:23:14;;;;;;;5.35;4.42;;;31.40;99.50;;;;;;1845447;76;21618;-76
2022/08/05 10:26:11;;;;;;;7.83;4.00;;;31.50;99.40;;;;;;1879196;76;21131;-76
2022/08/05 10:29:04;;;;;;;6.20;3.67;;;31.70;98.60;;;;;;1874574;74;21136;-75
2022/08/05 10:31:56;;;;;;;4.50;4.00;;;31.80;98.80;;;;;;1869678;76;21119;-75
2022/08/05 10:34:50;;;;;;;5.17;3.25;;;32.00;98.10;;;;;;1866616;76;21603;-76
2022/08/05 10:37:42;;;;;;;4.28;3.87;;;32.00;96.70;;;;;;1841877;77;21064;-75
2022/08/05 10:40:39;;;;;;;4.15;3.58;;;32.20;96.10;;;;;;1870566;76;21134;-76
2022/08/05 10:43:40;;;;;;;4.95;3.80;;;32.20;96.10;;;;;;1872727;76;21213;-75
2022/08/05 10:46:46;;;;;;;4.70;3.40;;;32.30;96.10;;;;;;1854431;76;21072;-76
2022/08/05 10:50:01;;;;;;;4.03;3.55;;;32.30;94.10;;;;;;1878940;76;21108;-75
2022/08/05 10:52:56;;;;;;;4.97;3.50;;;32.40;94.90;;;;;;1862050;77;21151;-75
2022/08/05 10:56:05;;;;;;;4.12;3.70;;;32.40;94.10;;;;;;1874875;76;21061;-77
2022/08/05 10:59:07;;;;;;;2.98;2.33;;;32.40;94.60;;;;;;1875626;76;21079;-77
2022/08/05 11:02:10;;;;;;;4.58;2.30;;;32.60;90.80;;;;;;1855628;77;21153;-77
2022/08/05 11:05:06;;;;;;;3.58;2.22;;;32.90;85.60;;;;;;1876288;76;21158;-77
2022/08/05 11:08:01;;;;;;;5.30;2.33;;;33.10;86.30;;;;;;1876272;76;21154;-77
2022/08/05 11:10:54;;;;;;;3.15;2.37;;;33.30;83.70;;;;;;1876328;76;21205;-77
2022/08/05 11:13:54;;;;;;;2.50;2.30;;;33.30;82.70;;;;;;1874893;76;21162;-77
2022/08/05 11:16:49;;;;;;;2.62;2.20;;;33.40;81.20;;;;;;1841946;77;21076;-77
2022/08/05 11:19:47;;;;;;;4.42;2.42;;;33.40;81.10;;;;;;1876274;76;21119;-76
2022/08/05 11:22:42;;;;;;;6.15;2.72;;;33.60;80.10;;;;;;1876503;76;21095;-75
2022/08/05 11:25:46;;;;;;;5.12;2.55;;;33.60;81.00;;;;;;1876586;76;21108;-76
2022/08/05 11:28:50;;;;;;;4.53;2.40;;;33.60;79.80;;;;;;1876181;76;21174;-76
2022/08/05 11:31:42;;;;;;;4.03;2.30;;;33.70;80.00;;;;;;1860049;77;21201;-76
2022/08/05 11:34:40;;;;;;;3.70;2.15;;;33.70;80.00;;;;;;1856359;77;21147;-75
2022/08/05 11:38:01;;;;;;;5.75;2.60;;;33.70;80.70;;;;;;1873432;76;21233;-76
2022/08/05 11:41:02;;;;;;;5.50;2.22;;;33.80;80.00;;;;;;1873705;76;21134;-76
2022/08/05 11:44:05;;;;;;;3.10;2.58;;;33.60;80.40;;;;;;1873719;76;21575;-75
2022/08/05 11:47:06;;;;;;;3.35;2.95;;;33.70;81.50;;;;;;1876726;76;21130;-75
2022/08/05 11:50:00;;;;;;;5.65;2.45;;;33.70;81.80;;;;;;1876317;76;21116;-76
2022/08/05 11:52:54;;;;;;;3.02;2.15;;;33.70;81.90;;;;;;1875754;76;21092;-75
2022/08/05 11:55:59;;;;;;;3.85;2.55;;;33.70;82.30;;;;;;1875393;76;21088;-75
2022/08/05 11:58:52;;;;;;;3.85;2.40;;;33.80;82.40;;;;;;1840768;77;21068;-75
2022/08/05 12:01:55;;;;;;;3.33;2.45;;;33.80;81.40;;;;;;1876464;76;21068;-75
2022/08/05 12:04:48;;;;;;;5.78;2.42;;;34.00;80.80;;;;;;1876360;76;21145;-75
2022/08/05 12:07:42;;;;;;;4.20;2.67;;;34.10;80.20;;;;;;1876219;76;21152;-75
2022/08/05 12:13:18;;;;;;;5.08;2.70;;;34.10;80.40;;;;;;1942221;72;22142;-75
2022/08/05 12:16:12;;;;;;;12.73;3.02;;;34.20;79.70;;;;;;1921666;74;21078;-75
2022/08/05 12:19:06;;;;;;;9.33;3.00;;;34.40;79.10;;;;;;1911707;75;21221;-76
2022/08/05 12:21:58;;;;;;;3.55;2.47;;;34.50;79.50;;;;;;1912328;75;21168;-76
2022/08/05 12:24:56;;;;;;;8.98;2.90;;;34.60;78.70;;;;;;1921305;74;21186;-76
2022/08/05 12:27:52;;;;;;;4.45;2.77;;;34.70;77.50;;;;;;1921959;74;21165;-76
2022/08/05 12:30:55;;;;;;;5.42;2.80;;;34.80;77.00;;;;;;1921792;74;21194;-76
2022/08/05 12:33:46;;;;;;;6.37;2.65;;;34.80;76.60;;;;;;1917350;75;21042;-77
2022/08/05 12:36:41;;;;;;;4.47;2.67;;;34.70;76.20;;;;;;1917607;75;21091;-79
2022/08/05 12:39:34;;;;;;;4.45;2.65;;;34.70;77.20;;;;;;1901913;74;21046;-78
2022/08/05 12:42:38;;;;;;;4.28;2.70;;;34.90;75.90;;;;;;1919478;74;21081;-77
2022/08/05 12:45:41;;;;;;;4.72;2.75;;;34.90;74.80;;;;;;1907666;74;21137;-78
2022/08/05 12:48:40;;;;;;;5.45;2.70;;;34.90;74.40;;;;;;1910332;75;21612;-78
2022/08/05 12:51:35;;;;;;;3.22;2.80;;;35.00;74.10;;;;;;1915546;74;21120;-78
2022/08/05 12:54:29;;;;;;;5.05;2.50;;;35.00;74.00;;;;;;1916198;74;21123;-78
2022/08/05 12:57:20;;;;;;;4.85;2.72;;;35.10;73.70;;;;;;1901847;74;21082;-78
2022/08/05 13:00:22;;;;;;;3.20;2.60;;;35.20;73.10;;;;;;1919417;74;21112;-78
2022/08/05 13:03:27;;;;;;;8.95;2.80;;;35.20;72.50;;;;;;1917112;74;21094;-78
2022/08/05 13:06:24;;;;;;;2.65;2.45;;;35.30;72.80;;;;;;1911220;75;21199;-78
2022/08/05 13:09:15;;;;;;;3.75;2.42;;;35.30;72.70;;;;;;1921677;74;21112;-78
2022/08/05 13:12:11;;;;;;;2.60;2.40;;;35.30;72.50;;;;;;1921090;74;21146;-78
2022/08/05 13:15:03;;;;;;;3.42;2.47;;;35.30;71.70;;;;;;1884900;76;21142;-78
2022/08/05 13:17:56;;;;;;;3.60;2.50;;;35.50;71.30;;;;;;1915191;75;21099;-78
2022/08/05 13:20:54;;;;;;;2.52;2.33;;;35.70;71.60;;;;;;1917888;75;21094;-78
2022/08/05 13:23:53;;;;;;;4.80;2.67;;;35.90;70.80;;;;;;1910983;75;21080;-78
2022/08/05 13:26:46;;;;;;;4.92;2.80;;;35.80;69.70;;;;;;1920186;74;21159;-78
2022/08/05 13:29:40;;;;;;;3.08;2.37;;;35.80;70.10;;;;;;1899663;74;21169;-78
2022/08/05 13:32:33;;;;;;;2.60;2.40;;;35.90;70.30;;;;;;1917168;74;21109;-78
2022/08/05 13:35:26;;;;;;;4.33;2.65;;;35.90;69.60;;;;;;1916710;75;21107;-78
2022/08/05 13:38:19;;;;;;;4.25;2.60;;;36.10;69.10;;;;;;1916652;75;21207;-76
2022/08/05 13:41:14;;;;;;;3.50;2.58;;;36.20;69.00;;;;;;1902270;74;21101;-76
2022/08/05 13:44:07;;;;;;;3.47;2.85;;;36.20;68.20;;;;;;1921321;74;21058;-76
2022/08/05 13:47:07;;;;;;;4.90;2.70;;;36.10;67.80;;;;;;1918226;74;21109;-76
2022/08/05 13:49:59;;;;;;;4.08;2.60;;;36.00;68.10;;;;;;1918520;74;21136;-76
2022/08/05 13:52:51;;;;;;;3.27;2.40;;;35.80;67.90;;;;;;1916785;75;21189;-76
2022/08/05 13:55:43;;;;;;;2.70;2.50;;;35.90;67.80;;;;;;1900790;74;21050;-76
2022/08/05 13:58:36;;;;;;;3.85;2.40;;;36.20;67.00;;;;;;1917115;74;21094;-76
2022/08/05 14:01:29;;;;;;;3.58;2.58;;;36.40;66.80;;;;;;1893552;75;21512;-76
2022/08/05 14:07:45;;;;;;;4.05;2.77;;;37.00;66.30;;;;;;1916886;75;21990;-76
2022/08/05 14:10:39;;;;;;;3.02;2.37;;;36.90;66.20;;;;;;1916938;75;21262;-76
2022/08/05 14:13:30;;;;;;;3.50;2.40;;;36.80;65.90;;;;;;1895986;75;21678;-76
2022/08/05 14:16:30;;;;;;;3.05;2.77;;;36.70;66.00;;;;;;1907344;75;21108;-76
2022/08/05 14:19:22;;;;;;;6.97;2.67;;;36.80;66.00;;;;;;1907547;75;21037;-76
2022/08/05 14:22:15;;;;;;;2.83;2.50;;;36.70;66.20;;;;;;1907896;75;21165;-76
2022/08/05 14:25:10;;;;;;;3.92;2.72;;;36.60;66.20;;;;;;1909480;75;21160;-75
2022/08/05 14:28:03;;;;;;;3.52;2.70;;;36.40;66.20;;;;;;1914127;75;21058;-76
2022/08/05 14:30:56;;;;;;;3.08;2.50;;;36.40;66.40;;;;;;1907665;75;21050;-75
2022/08/05 14:33:48;;;;;;;3.17;2.60;;;36.40;66.10;;;;;;1906869;75;21098;-76
2022/08/05 14:36:41;;;;;;;2.98;2.58;;;36.50;65.40;;;;;;1904646;75;21176;-77
2022/08/05 14:39:34;;;;;;;3.40;2.50;;;36.40;64.90;;;;;;1901029;74;21090;-76
2022/08/05 14:42:26;;;;;;;7.00;2.85;;;36.30;65.50;;;;;;1919043;74;21062;-76
2022/08/05 14:45:18;;;;;;;2.70;2.50;;;36.20;66.10;;;;;;1918143;74;21174;-76
2022/08/05 14:48:13;;;;;;;4.20;2.67;;;36.00;66.60;;;;;;1921261;74;21086;-78
2022/08/05 14:51:06;;;;;;;7.22;2.90;;;35.80;66.30;;;;;;1917025;75;21058;-78
2022/08/05 14:53:58;;;;;;;6.12;2.90;;;35.80;66.20;;;;;;1885161;75;21093;-78
2022/08/05 14:56:50;;;;;;;5.22;2.75;;;35.70;66.70;;;;;;1915208;74;21505;-79
2022/08/05 14:59:43;;;;;;;5.47;3.20;;;35.70;66.80;;;;;;1922297;74;21159;-79
2022/08/05 15:02:35;;;;;;;3.15;2.85;;;35.70;67.40;;;;;;1916754;75;21104;-79
2022/08/05 15:05:28;;;;;;;6.75;3.40;;;35.50;69.90;;;;;;1904589;75;21063;-79
2022/08/05 15:08:20;;;;;;;3.85;2.70;;;35.30;72.20;;;;;;1910748;75;21144;-78
2022/08/05 15:11:13;;;;;;;4.67;2.77;;;35.40;70.00;;;;;;1921090;74;21572;-79
2022/08/05 15:14:05;;;;;;;4.25;3.15;;;35.20;70.20;;;;;;1914428;74;21070;-79
2022/08/05 15:16:57;;;;;;;8.55;3.40;;;34.80;75.70;;;;;;1889083;74;21097;-79
2022/08/05 15:19:57;;;;;;;7.55;3.35;;;34.80;76.50;;;;;;1877745;74;21605;-78